createdAt,value
2016-03-25T00:00:38.619Z,6.6
2016-03-25T00:01:38.622Z,6.51
2016-03-25T00:02:38.641Z,6.62
2016-03-25T00:03:38.659Z,6.67
2016-03-25T00:04:38.661Z,6.79
2016-03-25T00:05:38.523Z,6.77
2016-03-25T00:06:38.682Z,6.75
2016-03-25T00:07:38.708Z,6.75
2016-03-25T00:08:38.726Z,6.78
2016-03-25T00:09:38.712Z,6.7
2016-03-25T00:10:38.747Z,6.79
2016-03-25T00:11:38.734Z,6.75
2016-03-25T00:12:38.753Z,6.79
2016-03-25T00:13:38.770Z,6.87
2016-03-25T00:14:38.758Z,6.82
2016-03-25T00:15:38.792Z,6.77
2016-03-25T00:16:38.794Z,6.7
2016-03-25T00:17:38.797Z,6.78
2016-03-25T00:18:38.800Z,6.84
2016-03-25T00:19:38.833Z,6.81
2016-03-25T00:20:38.883Z,6.84
2016-03-25T00:21:38.855Z,6.74
2016-03-25T00:22:38.747Z,6.78
2016-03-25T00:23:38.875Z,6.79
2016-03-25T00:24:38.894Z,6.78
2016-03-25T00:25:38.896Z,6.77
2016-03-25T00:26:38.915Z,6.67
2016-03-25T00:27:38.918Z,6.67
2016-03-25T00:28:38.935Z,6.74
2016-03-25T00:29:38.955Z,6.7
2016-03-25T00:30:38.957Z,6.82
2016-03-25T00:31:39.006Z,6.72
2016-03-25T00:32:38.993Z,6.77
2016-03-25T00:33:38.824Z,6.74
2016-03-25T00:34:38.999Z,6.72
2016-03-25T00:35:39.018Z,6.7
2016-03-25T00:36:39.020Z,6.78
2016-03-25T00:37:39.070Z,6.74
2016-03-25T00:38:39.072Z,6.7
2016-03-25T00:39:39.059Z,6.75
2016-03-25T00:40:39.062Z,6.69
2016-03-25T00:41:39.080Z,6.72
2016-03-25T00:42:39.114Z,6.84
2016-03-25T00:43:39.101Z,6.79
2016-03-25T00:44:39.119Z,6.72
2016-03-25T00:45:39.138Z,6.85
2016-03-25T00:46:39.140Z,6.82
2016-03-25T00:47:39.142Z,6.74
2016-03-25T00:48:39.162Z,6.81
2016-03-25T00:49:39.180Z,6.82
2016-03-25T00:50:39.166Z,6.84
2016-03-25T00:51:39.061Z,6.89
2016-03-25T00:52:39.078Z,6.87
2016-03-25T00:53:39.238Z,6.84
2016-03-25T00:54:39.225Z,6.88
2016-03-25T00:55:39.243Z,6.89
2016-03-25T00:56:39.261Z,6.92
2016-03-25T00:57:39.263Z,6.88
2016-03-25T00:58:39.266Z,6.89
2016-03-25T00:59:39.284Z,6.78
2016-03-25T01:00:39.335Z,6.85
2016-03-25T01:01:39.321Z,6.92
2016-03-25T01:02:39.324Z,6.85
2016-03-25T01:03:39.343Z,6.82
2016-03-25T01:04:39.346Z,7
2016-03-25T01:05:39.363Z,6.87
2016-03-25T01:06:39.366Z,6.79
2016-03-25T01:07:39.401Z,6.95
2016-03-25T01:08:39.387Z,6.87
2016-03-25T01:09:39.390Z,6.87
2016-03-25T01:10:39.455Z,6.87
2016-03-25T01:11:39.426Z,6.88
2016-03-25T01:12:39.429Z,6.95
2016-03-25T01:13:39.462Z,6.88
2016-03-25T01:14:39.497Z,6.81
2016-03-25T01:15:39.484Z,6.88
2016-03-25T01:16:39.471Z,6.87
2016-03-25T01:17:39.490Z,6.87
2016-03-25T01:18:39.508Z,6.88
2016-03-25T01:19:39.511Z,6.82
2016-03-25T01:20:39.529Z,6.79
2016-03-25T01:21:39.563Z,6.72
2016-03-25T01:22:39.550Z,6.72
2016-03-25T01:23:39.583Z,6.72
2016-03-25T01:24:39.571Z,6.63
2016-03-25T01:25:39.589Z,6.67
2016-03-25T01:26:39.608Z,6.67
2016-03-25T01:27:39.610Z,6.63
2016-03-25T01:28:39.613Z,6.54
2016-03-25T01:29:39.646Z,6.62
2016-03-25T01:30:39.666Z,6.51
2016-03-25T01:31:39.668Z,6.49
2016-03-25T01:32:39.671Z,6.49
2016-03-25T01:33:39.704Z,6.54
2016-03-25T01:34:39.707Z,6.46
2016-03-25T01:35:39.710Z,6.45
2016-03-25T01:36:39.713Z,6.38
2016-03-25T01:38:39.765Z,6.45
2016-03-25T01:39:39.736Z,6.36
2016-03-25T01:40:39.770Z,6.42
2016-03-25T01:41:39.757Z,6.49
2016-03-25T01:42:39.823Z,6.51
2016-03-25T01:43:39.793Z,6.51
2016-03-25T01:44:39.812Z,6.48
2016-03-25T01:45:39.815Z,6.44
2016-03-25T01:46:39.817Z,6.49
2016-03-25T01:47:39.851Z,6.48
2016-03-25T01:48:39.839Z,6.49
2016-03-25T01:49:39.888Z,6.45
2016-03-25T01:50:39.875Z,6.49
2016-03-25T01:51:39.878Z,6.54
2016-03-25T01:52:39.896Z,6.51
2016-03-25T01:53:39.899Z,6.39
2016-03-25T01:54:39.933Z,6.44
2016-03-25T01:55:39.919Z,6.44
2016-03-25T01:56:40.313Z,6.49
2016-03-25T01:57:39.972Z,6.51
2016-03-25T01:58:39.975Z,6.52
2016-03-25T01:59:39.977Z,6.52
2016-03-25T02:00:39.996Z,6.45
2016-03-25T02:01:39.999Z,6.54
2016-03-25T02:02:40.002Z,6.62
2016-03-25T02:03:40.019Z,6.59
2016-03-25T02:04:40.053Z,6.52
2016-03-25T02:05:40.040Z,6.72
2016-03-25T02:06:40.043Z,6.66
2016-03-25T02:07:40.046Z,6.67
2016-03-25T02:08:40.079Z,6.56
2016-03-25T02:09:40.098Z,6.64
2016-03-25T02:10:40.101Z,6.63
2016-03-25T02:11:40.103Z,6.64
2016-03-25T02:12:40.121Z,6.77
2016-03-25T02:13:40.140Z,6.69
2016-03-25T02:14:40.158Z,6.69
2016-03-25T02:15:40.146Z,6.72
2016-03-25T02:16:40.148Z,6.87
2016-03-25T02:17:40.166Z,6.92
2016-03-25T02:18:40.232Z,6.82
2016-03-25T02:19:40.203Z,6.88
2016-03-25T02:20:40.221Z,6.87
2016-03-25T02:21:40.225Z,6.81
2016-03-25T02:22:40.242Z,6.77
2016-03-25T02:23:40.245Z,6.74
2016-03-25T02:24:40.247Z,6.77
2016-03-25T02:25:40.297Z,6.7
2016-03-25T02:26:40.284Z,6.72
2016-03-25T02:27:40.302Z,6.72
2016-03-25T02:28:40.305Z,6.75
2016-03-25T02:29:40.307Z,6.75
2016-03-25T02:30:40.341Z,6.75
2016-03-25T02:31:40.345Z,6.89
2016-03-25T02:32:40.363Z,6.89
2016-03-25T02:33:40.349Z,6.87
2016-03-25T02:34:40.369Z,6.84
2016-03-25T02:35:40.371Z,6.88
2016-03-25T02:36:40.389Z,7.03
2016-03-25T02:37:40.407Z,6.93
2016-03-25T02:38:40.410Z,6.88
2016-03-25T02:39:40.429Z,6.92
2016-03-25T02:40:40.447Z,6.97
2016-03-25T02:41:40.449Z,6.97
2016-03-25T02:42:40.452Z,7.1
2016-03-25T02:43:40.471Z,7.11
2016-03-25T02:44:40.473Z,7.02
2016-03-25T02:45:40.491Z,7.1
2016-03-25T02:46:40.509Z,7.11
2016-03-25T02:47:40.504Z,7.13
2016-03-25T02:48:40.492Z,7.06
2016-03-25T02:49:40.512Z,7.06
2016-03-25T02:50:40.530Z,7.11
2016-03-25T02:51:40.487Z,7.07
2016-03-25T02:52:40.495Z,7.07
2016-03-25T02:53:40.508Z,7.03
2016-03-25T02:54:40.521Z,7.02
2016-03-25T02:55:40.503Z,7
2016-03-25T02:56:40.516Z,7.13
2016-03-25T02:57:40.530Z,7.14
2016-03-25T02:58:40.531Z,7.1
2016-03-25T02:59:40.548Z,7.13
2016-03-25T03:00:40.596Z,7.21
2016-03-25T03:01:40.596Z,7.24
2016-03-25T03:02:40.582Z,7.28
2016-03-25T03:03:40.615Z,7.21
2016-03-25T03:04:40.602Z,7.23
2016-03-25T03:05:40.619Z,7.2
2016-03-25T03:06:40.636Z,7.21
2016-03-25T03:07:40.653Z,7.23
2016-03-25T03:08:40.656Z,7.18
2016-03-25T03:09:40.658Z,7.13
2016-03-25T03:10:40.660Z,7.13
2016-03-25T03:11:40.679Z,7.07
2016-03-25T03:12:40.697Z,7.14
2016-03-25T03:13:40.715Z,7.11
2016-03-25T03:14:40.734Z,7.14
2016-03-25T03:15:40.720Z,7.1
2016-03-25T03:16:40.755Z,7.11
2016-03-25T03:17:40.758Z,7.05
2016-03-25T03:18:40.760Z,7.05
2016-03-25T03:19:40.778Z,7.1
2016-03-25T03:20:40.797Z,7.07
2016-03-25T03:21:40.800Z,7.02
2016-03-25T03:22:40.802Z,6.96
2016-03-25T03:23:40.820Z,6.88
2016-03-25T03:24:40.839Z,6.85
2016-03-25T03:25:40.841Z,6.81
2016-03-25T03:26:40.844Z,6.84
2016-03-25T03:27:40.863Z,6.77
2016-03-25T03:28:40.896Z,6.88
2016-03-25T03:29:40.931Z,6.85
2016-03-25T03:30:40.887Z,6.75
2016-03-25T03:31:40.921Z,6.88
2016-03-25T03:32:40.924Z,6.87
2016-03-25T03:33:40.942Z,6.84
2016-03-25T03:34:40.960Z,6.92
2016-03-25T03:35:40.947Z,6.87
2016-03-25T03:36:40.997Z,6.89
2016-03-25T03:37:40.983Z,6.85
2016-03-25T03:38:41.003Z,6.82
2016-03-25T03:39:41.005Z,6.78
2016-03-25T03:40:41.023Z,6.92
2016-03-25T03:41:41.027Z,6.85
2016-03-25T03:42:41.060Z,6.81
2016-03-25T03:43:41.062Z,6.78
2016-03-25T03:44:41.066Z,6.81
2016-03-25T03:45:41.084Z,6.79
2016-03-25T03:46:41.087Z,6.79
2016-03-25T03:47:41.090Z,6.77
2016-03-25T03:48:41.123Z,6.81
2016-03-25T03:49:41.110Z,6.75
2016-03-25T03:50:41.128Z,6.75
2016-03-25T03:51:41.131Z,6.74
2016-03-25T03:52:41.149Z,6.63
2016-03-25T03:53:41.167Z,6.64
2016-03-25T03:54:41.171Z,6.64
2016-03-25T03:55:41.189Z,6.64
2016-03-25T03:56:41.206Z,6.64
2016-03-25T03:57:41.210Z,6.62
2016-03-25T03:58:41.228Z,6.63
2016-03-25T03:59:41.231Z,6.69
2016-03-25T04:00:41.264Z,6.67
2016-03-25T04:01:41.252Z,6.64
2016-03-25T04:02:41.270Z,6.6
2016-03-25T04:03:41.116Z,6.54
2016-03-25T04:04:41.275Z,6.62
2016-03-25T04:05:41.294Z,6.48
2016-03-25T04:06:41.297Z,6.6
2016-03-25T04:07:41.330Z,6.56
2016-03-25T04:08:41.316Z,6.59
2016-03-25T04:09:41.352Z,6.59
2016-03-25T04:10:41.369Z,6.57
2016-03-25T04:11:41.404Z,6.6
2016-03-25T04:12:41.375Z,6.56
2016-03-25T04:13:41.393Z,6.41
2016-03-25T04:14:41.412Z,6.45
2016-03-25T04:15:41.415Z,6.54
2016-03-25T04:16:41.417Z,6.51
2016-03-25T04:17:41.451Z,6.48
2016-03-25T04:18:41.454Z,6.49
2016-03-25T04:19:41.472Z,6.51
2016-03-25T04:20:41.459Z,6.48
2016-03-25T04:21:41.493Z,6.48
2016-03-25T04:22:41.495Z,6.44
2016-03-25T04:23:41.499Z,6.41
2016-03-25T04:24:41.517Z,6.51
2016-03-25T04:25:41.534Z,6.49
2016-03-25T04:26:41.537Z,6.48
2016-03-25T04:27:41.556Z,6.42
2016-03-25T04:28:41.559Z,6.44
2016-03-25T04:29:41.577Z,6.51
2016-03-25T04:30:41.580Z,6.46
2016-03-25T04:31:41.598Z,6.42
2016-03-25T04:32:41.616Z,6.45
2016-03-25T04:33:41.603Z,6.48
2016-03-25T04:34:41.637Z,6.46
2016-03-25T04:35:41.624Z,6.46
2016-03-25T04:36:41.659Z,6.45
2016-03-25T04:37:41.661Z,6.46
2016-03-25T04:38:41.663Z,6.42
2016-03-25T04:39:41.683Z,6.38
2016-03-25T04:40:41.685Z,6.36
2016-03-25T04:41:41.702Z,6.42
2016-03-25T04:42:41.705Z,6.45
2016-03-25T04:43:41.724Z,6.42
2016-03-25T04:44:41.743Z,6.42
2016-03-25T04:45:41.746Z,6.46
2016-03-25T04:46:41.763Z,6.41
2016-03-25T04:47:41.765Z,6.39
2016-03-25T04:48:41.785Z,6.41
2016-03-25T04:49:41.787Z,6.44
2016-03-25T04:50:41.804Z,6.38
2016-03-25T04:51:42.277Z,6.39
2016-03-25T04:52:41.826Z,6.39
2016-03-25T04:53:41.829Z,6.44
2016-03-25T04:54:41.879Z,6.46
2016-03-25T04:55:41.850Z,6.44
2016-03-25T04:56:42.040Z,6.42
2016-03-25T04:57:41.870Z,6.41
2016-03-25T04:58:41.890Z,6.36
2016-03-25T04:59:41.908Z,6.39
2016-03-25T05:00:41.942Z,6.35
2016-03-25T05:01:41.945Z,6.39
2016-03-25T05:02:41.931Z,6.42
2016-03-25T05:03:41.950Z,6.41
2016-03-25T05:04:41.952Z,6.38
2016-03-25T05:05:41.970Z,6.39
2016-03-25T05:06:41.972Z,6.38
2016-03-25T05:07:42.117Z,6.38
2016-03-25T05:08:42.012Z,6.48
2016-03-25T05:09:42.015Z,6.46
2016-03-25T05:10:42.017Z,6.36
2016-03-25T05:11:42.035Z,6.41
2016-03-25T05:12:42.053Z,6.44
2016-03-25T05:13:42.056Z,6.42
2016-03-25T05:14:42.074Z,6.42
2016-03-25T05:15:42.248Z,6.48
2016-03-25T05:16:42.095Z,6.42
2016-03-25T05:17:42.113Z,6.46
2016-03-25T05:18:42.116Z,6.54
2016-03-25T05:19:42.119Z,6.56
2016-03-25T05:20:42.152Z,6.56
2016-03-25T05:21:42.155Z,6.52
2016-03-25T05:22:42.158Z,6.49
2016-03-25T05:23:42.160Z,6.52
2016-03-25T05:24:42.179Z,6.48
2016-03-25T05:25:42.182Z,6.54
2016-03-25T05:26:42.216Z,6.51
2016-03-25T05:27:42.218Z,6.49
2016-03-25T05:28:42.221Z,6.57
2016-03-25T05:29:42.239Z,6.59
2016-03-25T05:30:42.242Z,6.52
2016-03-25T05:31:42.260Z,6.62
2016-03-25T05:32:42.263Z,6.63
2016-03-25T05:33:42.282Z,6.57
2016-03-25T05:34:42.299Z,6.62
2016-03-25T05:35:42.318Z,6.56
2016-03-25T05:36:42.414Z,6.54
2016-03-25T05:37:42.340Z,6.52
2016-03-25T05:38:42.326Z,6.57
2016-03-25T05:39:42.360Z,6.49
2016-03-25T05:40:42.363Z,6.51
2016-03-25T05:41:42.365Z,6.56
2016-03-25T05:42:42.368Z,6.62
2016-03-25T05:43:42.434Z,6.6
2016-03-25T05:44:42.417Z,6.59
2016-03-25T05:45:42.420Z,6.54
2016-03-25T05:46:42.423Z,6.49
2016-03-25T05:47:42.456Z,6.49
2016-03-25T05:48:42.288Z,6.52
2016-03-25T05:49:42.461Z,6.62
2016-03-25T05:50:42.497Z,6.62
2016-03-25T05:51:42.499Z,6.62
2016-03-25T05:52:42.501Z,6.62
2016-03-25T05:53:42.583Z,6.56
2016-03-25T05:54:42.507Z,6.56
2016-03-25T05:55:42.540Z,6.6
2016-03-25T05:56:42.544Z,6.54
2016-03-25T05:57:42.691Z,6.64
2016-03-25T05:58:42.569Z,6.64
2016-03-25T05:59:42.572Z,6.67
2016-03-25T06:00:42.590Z,6.67
2016-03-25T06:01:42.436Z,6.64
2016-03-25T06:02:42.612Z,6.64
2016-03-25T06:03:42.629Z,6.75
2016-03-25T06:04:42.632Z,6.69
2016-03-25T06:05:42.651Z,6.74
2016-03-25T06:06:42.637Z,6.75
2016-03-25T06:07:42.672Z,6.69
2016-03-25T06:08:42.862Z,6.72
2016-03-25T06:09:42.677Z,6.72
2016-03-25T06:10:42.711Z,6.72
2016-03-25T06:11:42.714Z,6.79
2016-03-25T06:12:42.716Z,6.72
2016-03-25T06:13:42.720Z,6.7
2016-03-25T06:14:42.737Z,6.85
2016-03-25T06:15:42.739Z,6.88
2016-03-25T06:16:42.759Z,6.87
2016-03-25T06:17:42.808Z,6.82
2016-03-25T06:18:42.779Z,6.78
2016-03-25T06:19:42.813Z,6.84
2016-03-25T06:20:42.816Z,6.95
2016-03-25T06:21:42.835Z,7
2016-03-25T06:22:42.837Z,6.93
2016-03-25T06:23:42.996Z,6.95
2016-03-25T06:24:42.858Z,6.99
2016-03-25T06:25:42.891Z,7.07
2016-03-25T06:26:42.894Z,7.03
2016-03-25T06:27:42.897Z,7.06
2016-03-25T06:28:42.899Z,7.17
2016-03-25T06:29:42.918Z,7.28
2016-03-25T06:30:42.921Z,7.28
2016-03-25T06:31:42.939Z,7.18
2016-03-25T06:32:42.957Z,7.28
2016-03-25T06:33:42.960Z,7.32
2016-03-25T06:34:42.979Z,7.38
2016-03-25T06:35:42.982Z,7.33
2016-03-25T06:36:43.000Z,7.42
2016-03-25T06:37:43.003Z,7.42
2016-03-25T06:38:43.037Z,7.45
2016-03-25T06:39:43.039Z,7.48
2016-03-25T06:41:43.045Z,7.38
2016-03-25T06:42:43.078Z,7.42
2016-03-25T06:43:43.080Z,7.43
2016-03-25T06:44:43.084Z,7.6
2016-03-25T06:45:43.086Z,7.47
2016-03-25T06:46:43.120Z,7.47
2016-03-25T06:47:43.139Z,7.56
2016-03-25T06:48:43.125Z,7.66
2016-03-25T06:49:43.160Z,7.61
2016-03-25T06:50:43.163Z,7.72
2016-03-25T06:51:43.180Z,7.72
2016-03-25T06:52:43.183Z,7.73
2016-03-25T06:53:43.311Z,7.77
2016-03-25T06:54:43.251Z,7.77
2016-03-25T06:55:43.255Z,7.72
2016-03-25T06:56:43.241Z,7.83
2016-03-25T06:57:43.274Z,7.85
2016-03-25T06:58:43.262Z,7.85
2016-03-25T06:59:43.265Z,7.87
2016-03-25T07:00:43.314Z,7.95
2016-03-25T07:01:43.317Z,7.94
2016-03-25T07:02:43.304Z,7.95
2016-03-25T07:03:43.323Z,7.98
2016-03-25T07:04:43.387Z,8.15
2016-03-25T07:05:43.343Z,8.06
2016-03-25T07:06:43.361Z,8.03
2016-03-25T07:07:43.364Z,8.1
2016-03-25T07:08:43.429Z,8.09
2016-03-25T07:09:43.385Z,8.15
2016-03-25T07:10:43.247Z,8.15
2016-03-25T07:11:43.407Z,8.12
2016-03-25T07:12:43.472Z,8.23
2016-03-25T07:13:43.442Z,8.23
2016-03-25T07:14:43.461Z,8.28
2016-03-25T07:15:43.464Z,8.26
2016-03-25T07:16:43.513Z,8.26
2016-03-25T07:17:43.500Z,8.27
2016-03-25T07:18:43.503Z,8.28
2016-03-25T07:19:43.521Z,8.3
2016-03-25T07:20:43.540Z,8.31
2016-03-25T07:21:43.542Z,8.27
2016-03-25T07:22:43.576Z,8.24
2016-03-25T07:23:43.705Z,8.27
2016-03-25T07:24:43.582Z,8.28
2016-03-25T07:25:43.459Z,8.42
2016-03-25T07:26:43.618Z,8.42
2016-03-25T07:27:43.621Z,8.36
2016-03-25T07:28:43.624Z,8.42
2016-03-25T07:29:43.643Z,8.41
2016-03-25T07:30:43.661Z,8.49
2016-03-25T07:31:43.679Z,8.52
2016-03-25T07:32:43.697Z,8.53
2016-03-25T07:33:43.684Z,8.63
2016-03-25T07:34:43.718Z,8.51
2016-03-25T07:35:43.720Z,8.49
2016-03-25T07:36:43.724Z,8.46
2016-03-25T07:37:43.757Z,8.52
2016-03-25T07:38:43.979Z,8.58
2016-03-25T07:39:43.763Z,8.58
2016-03-25T07:40:43.781Z,8.6
2016-03-25T07:41:43.799Z,8.61
2016-03-25T07:42:43.818Z,8.73
2016-03-25T07:43:43.836Z,8.61
2016-03-25T07:44:43.870Z,8.6
2016-03-25T07:45:43.889Z,8.52
2016-03-25T07:46:43.860Z,8.74
2016-03-25T07:47:43.862Z,8.71
2016-03-25T07:48:43.881Z,8.78
2016-03-25T07:49:43.900Z,8.79
2016-03-25T07:50:43.902Z,8.87
2016-03-25T07:51:43.952Z,8.92
2016-03-25T07:52:43.985Z,9
2016-03-25T07:53:43.988Z,8.91
2016-03-25T07:54:43.975Z,9
2016-03-25T07:55:43.994Z,8.91
2016-03-25T07:56:43.996Z,8.94
2016-03-25T07:57:43.998Z,8.94
2016-03-25T07:58:44.032Z,8.95
2016-03-25T07:59:44.067Z,9
2016-03-25T08:00:44.054Z,8.95
2016-03-25T08:01:44.056Z,9.03
2016-03-25T08:02:44.091Z,9.03
2016-03-25T08:03:44.093Z,8.94
2016-03-25T08:04:44.095Z,8.95
2016-03-25T08:05:44.160Z,9.08
2016-03-25T08:06:44.148Z,9.1
2016-03-25T08:07:44.135Z,9.08
2016-03-25T08:08:44.168Z,9.18
2016-03-25T08:09:44.171Z,9.31
2016-03-25T08:10:44.190Z,9.39
2016-03-25T08:11:44.208Z,9.37
2016-03-25T08:12:44.211Z,9.4
2016-03-25T08:13:44.245Z,9.32
2016-03-25T08:14:44.231Z,9.34
2016-03-25T08:15:44.266Z,9.28
2016-03-25T08:16:44.269Z,9.14
2016-03-25T08:17:44.287Z,9.28
2016-03-25T08:18:44.289Z,9.28
2016-03-25T08:19:44.308Z,9.34
2016-03-25T08:20:44.358Z,9.31
2016-03-25T08:21:44.344Z,9.34
2016-03-25T08:22:44.363Z,9.41
2016-03-25T08:23:44.350Z,9.43
2016-03-25T08:24:44.399Z,9.39
2016-03-25T08:25:44.386Z,9.34
2016-03-25T08:26:44.405Z,9.39
2016-03-25T08:27:44.423Z,9.37
2016-03-25T08:28:44.441Z,9.34
2016-03-25T08:29:44.444Z,9.36
2016-03-25T08:30:46.399Z,9.5
2016-03-25T08:31:44.466Z,9.51
2016-03-25T08:32:43.733Z,9.5
2016-03-25T08:33:44.518Z,9.62
2016-03-25T08:34:44.552Z,9.54
2016-03-25T08:35:44.554Z,9.48
2016-03-25T08:36:44.557Z,9.65
2016-03-25T08:37:44.559Z,9.69
2016-03-25T08:38:44.578Z,9.74
2016-03-25T08:39:44.595Z,9.84
2016-03-25T08:40:44.614Z,9.87
2016-03-25T08:41:44.617Z,9.86
2016-03-25T08:42:44.635Z,9.83
2016-03-25T08:43:44.654Z,9.82
2016-03-25T08:44:44.656Z,9.86
2016-03-25T08:45:44.675Z,9.91
2016-03-25T08:46:44.693Z,9.97
2016-03-25T08:47:44.711Z,10.01
2016-03-25T08:48:44.714Z,10.05
2016-03-25T08:49:44.779Z,9.98
2016-03-25T08:50:44.767Z,9.99
2016-03-25T08:51:44.754Z,10.04
2016-03-25T08:52:44.772Z,9.97
2016-03-25T08:53:44.790Z,10.05
2016-03-25T08:54:44.792Z,9.99
2016-03-25T08:55:44.827Z,10.05
2016-03-25T08:56:44.845Z,10.01
2016-03-25T08:57:44.847Z,9.97
2016-03-25T08:58:44.866Z,9.87
2016-03-25T08:59:44.868Z,9.86
2016-03-25T09:00:44.887Z,9.8
2016-03-25T09:01:44.905Z,9.8
2016-03-25T09:02:44.924Z,9.83
2016-03-25T09:03:44.927Z,9.99
2016-03-25T09:04:44.991Z,10.02
2016-03-25T09:05:44.962Z,9.98
2016-03-25T09:06:44.981Z,10.02
2016-03-25T09:07:44.999Z,10.02
2016-03-25T09:08:45.017Z,10.13
2016-03-25T09:09:45.020Z,10.19
2016-03-25T09:10:45.039Z,10.16
2016-03-25T09:11:45.057Z,10.19
2016-03-25T09:12:45.059Z,10.26
2016-03-25T09:13:45.078Z,10.28
2016-03-25T09:14:45.112Z,10.25
2016-03-25T09:15:45.115Z,10.2
2016-03-25T09:16:45.117Z,10.3
2016-03-25T09:17:45.151Z,10.28
2016-03-25T09:18:45.201Z,10.28
2016-03-25T09:19:45.157Z,10.25
2016-03-25T09:20:45.175Z,10.33
2016-03-25T09:21:45.194Z,10.4
2016-03-25T09:22:45.228Z,10.37
2016-03-25T09:23:45.262Z,10.31
2016-03-25T09:24:45.233Z,10.22
2016-03-25T09:25:45.267Z,10.22
2016-03-25T09:26:45.286Z,10.07
2016-03-25T09:27:45.272Z,10.17
2016-03-25T09:28:45.291Z,10.04
2016-03-25T09:29:45.325Z,10.09
2016-03-25T09:30:45.327Z,10.16
2016-03-25T09:31:45.346Z,10.16
2016-03-25T09:32:45.364Z,10.22
2016-03-25T09:33:45.413Z,10.28
2016-03-25T09:34:45.385Z,10.3
2016-03-25T09:35:45.419Z,10.3
2016-03-25T09:36:45.437Z,10.33
2016-03-25T09:37:45.424Z,10.51
2016-03-25T09:38:45.458Z,10.37
2016-03-25T09:39:45.460Z,10.44
2016-03-25T09:40:45.479Z,10.34
2016-03-25T09:41:45.481Z,10.38
2016-03-25T09:42:45.516Z,10.31
2016-03-25T09:43:45.518Z,10.35
2016-03-25T09:44:45.537Z,10.22
2016-03-25T09:45:45.540Z,10.13
2016-03-25T09:46:45.589Z,10.25
2016-03-25T09:47:45.575Z,10.28
2016-03-25T09:48:45.641Z,10.28
2016-03-25T09:49:45.612Z,10.33
2016-03-25T09:50:45.647Z,10.3
2016-03-25T09:51:45.633Z,10.31
2016-03-25T09:52:45.668Z,10.22
2016-03-25T09:53:45.670Z,10.31
2016-03-25T09:54:45.688Z,10.22
2016-03-25T09:55:45.707Z,10.26
2016-03-25T09:56:45.709Z,10.25
2016-03-25T09:57:45.744Z,10.25
2016-03-25T09:58:45.730Z,10.15
2016-03-25T09:59:45.750Z,10.2
2016-03-25T10:00:45.767Z,10.13
2016-03-25T10:01:45.786Z,10.25
2016-03-25T10:02:45.820Z,10.17
2016-03-25T10:03:45.822Z,10.1
2016-03-25T10:04:45.825Z,10.12
2016-03-25T10:05:45.828Z,10.19
2016-03-25T10:06:45.846Z,10.28
2016-03-25T10:07:45.864Z,10.26
2016-03-25T10:08:45.882Z,10.37
2016-03-25T10:09:45.901Z,10.31
2016-03-25T10:10:45.919Z,10.4
2016-03-25T10:11:45.921Z,10.49
2016-03-25T10:12:45.956Z,10.42
2016-03-25T10:13:45.959Z,10.35
2016-03-25T10:14:45.977Z,10.38
2016-03-25T10:15:45.979Z,10.42
2016-03-25T10:16:46.044Z,10.38
2016-03-25T10:17:46.032Z,10.42
2016-03-25T10:18:46.034Z,10.51
2016-03-25T10:19:46.037Z,10.51
2016-03-25T10:20:46.056Z,10.53
2016-03-25T10:21:46.074Z,10.63
2016-03-25T10:22:46.092Z,10.63
2016-03-25T10:23:46.110Z,10.6
2016-03-25T10:24:46.114Z,10.56
2016-03-25T10:25:46.131Z,10.48
2016-03-25T10:26:46.150Z,10.51
2016-03-25T10:27:46.167Z,10.61
2016-03-25T10:28:46.170Z,10.76
2016-03-25T10:29:46.188Z,10.84
2016-03-25T10:30:46.191Z,10.81
2016-03-25T10:31:46.241Z,10.87
2016-03-25T10:32:46.228Z,10.89
2016-03-25T10:33:46.246Z,10.89
2016-03-25T10:34:46.265Z,10.89
2016-03-25T10:35:46.268Z,10.84
2016-03-25T10:36:46.301Z,10.75
2016-03-25T10:37:46.319Z,10.72
2016-03-25T10:38:46.322Z,10.59
2016-03-25T10:39:46.356Z,10.64
2016-03-25T10:40:46.374Z,10.67
2016-03-25T10:41:46.362Z,10.59
2016-03-25T10:42:46.379Z,10.63
2016-03-25T10:43:46.382Z,10.68
2016-03-25T10:44:46.417Z,10.63
2016-03-25T10:45:46.450Z,10.72
2016-03-25T10:46:46.453Z,10.76
2016-03-25T10:47:46.456Z,10.79
2016-03-25T10:48:46.474Z,10.71
2016-03-25T10:49:46.476Z,10.71
2016-03-25T10:50:46.511Z,10.79
2016-03-25T10:51:46.514Z,10.87
2016-03-25T10:52:46.547Z,10.84
2016-03-25T10:53:46.550Z,10.87
2016-03-25T10:54:46.553Z,10.82
2016-03-25T10:55:46.586Z,10.81
2016-03-25T10:56:46.589Z,10.69
2016-03-25T10:57:46.608Z,10.61
2016-03-25T10:58:46.625Z,10.59
2016-03-25T10:59:46.644Z,10.57
2016-03-25T11:00:46.663Z,10.64
2016-03-25T11:01:46.665Z,10.71
2016-03-25T11:02:46.683Z,10.64
2016-03-25T11:03:46.686Z,10.59
2016-03-25T11:04:46.705Z,10.71
2016-03-25T11:05:46.723Z,10.74
2016-03-25T11:06:46.585Z,10.75
2016-03-25T11:07:46.760Z,10.81
2016-03-25T11:08:46.762Z,10.64
2016-03-25T11:09:46.780Z,10.51
2016-03-25T11:10:46.815Z,10.48
2016-03-25T11:11:46.817Z,10.67
2016-03-25T11:12:46.820Z,10.59
2016-03-25T11:13:46.838Z,10.78
2016-03-25T11:14:46.872Z,10.81
2016-03-25T11:15:46.875Z,10.79
2016-03-25T11:16:46.893Z,10.87
2016-03-25T11:17:46.895Z,10.92
2016-03-25T11:18:46.914Z,10.93
2016-03-25T11:19:46.932Z,11.05
2016-03-25T11:20:46.935Z,11.04
2016-03-25T11:21:46.969Z,11.11
2016-03-25T11:22:47.019Z,10.96
2016-03-25T11:23:46.990Z,11.04
2016-03-25T11:24:47.025Z,10.99
2016-03-25T11:25:47.012Z,11.05
2016-03-25T11:26:47.030Z,11.07
2016-03-25T11:27:47.064Z,11.08
2016-03-25T11:28:47.067Z,11.02
2016-03-25T11:29:47.085Z,11.08
2016-03-25T11:30:47.103Z,11.07
2016-03-25T11:31:47.106Z,11.07
2016-03-25T11:32:47.125Z,11.1
2016-03-25T11:33:47.142Z,11.02
2016-03-25T11:34:47.161Z,11.05
2016-03-25T11:35:47.164Z,11.08
2016-03-25T11:36:47.228Z,11.05
2016-03-25T11:37:47.231Z,11.08
2016-03-25T11:38:47.219Z,10.94
2016-03-25T11:39:47.237Z,10.87
2016-03-25T11:40:47.336Z,10.93
2016-03-25T11:41:47.306Z,10.9
2016-03-25T11:42:47.134Z,10.99
2016-03-25T11:43:47.533Z,11.05
2016-03-25T11:44:47.383Z,11
2016-03-25T11:45:47.339Z,10.9
2016-03-25T11:46:47.341Z,10.71
2016-03-25T11:47:47.344Z,10.59
2016-03-25T11:48:47.378Z,10.54
2016-03-25T11:49:47.365Z,10.51
2016-03-25T11:50:47.415Z,10.53
2016-03-25T11:51:47.433Z,10.51
2016-03-25T11:52:47.420Z,10.51
2016-03-25T11:53:47.422Z,10.51
2016-03-25T11:54:47.319Z,10.4
2016-03-25T11:55:47.437Z,10.41
2016-03-25T11:56:47.444Z,10.37
2016-03-25T11:57:47.435Z,10.37
2016-03-25T11:58:47.448Z,10.49
2016-03-25T11:59:47.463Z,10.42
2016-03-25T12:00:47.476Z,10.48
2016-03-25T12:01:47.475Z,10.51
2016-03-25T12:02:47.505Z,10.53
2016-03-25T12:03:47.506Z,10.49
2016-03-25T12:04:47.508Z,10.53
2016-03-25T12:05:47.557Z,10.53
2016-03-25T12:06:47.558Z,10.46
2016-03-25T12:07:47.544Z,10.42
2016-03-25T12:08:47.576Z,10.38
2016-03-25T12:09:47.579Z,10.46
2016-03-25T12:10:47.611Z,10.51
2016-03-25T12:11:47.629Z,10.4
2016-03-25T12:12:47.615Z,10.54
2016-03-25T12:13:47.650Z,10.54
2016-03-25T12:14:47.653Z,10.51
2016-03-25T12:15:47.717Z,10.35
2016-03-25T12:16:47.736Z,10.34
2016-03-25T12:17:47.708Z,10.37
2016-03-25T12:18:47.710Z,10.4
2016-03-25T12:19:47.744Z,10.3
2016-03-25T12:20:47.762Z,10.25
2016-03-25T12:21:47.749Z,10.16
2016-03-25T12:22:47.768Z,10.19
2016-03-25T12:23:47.786Z,10.16
2016-03-25T12:24:47.523Z,10.1
2016-03-25T12:25:47.807Z,10.02
2016-03-25T12:26:47.841Z,10.09
2016-03-25T12:27:47.859Z,9.91
2016-03-25T12:28:47.862Z,9.89
2016-03-25T12:29:47.880Z,9.87
2016-03-25T12:30:47.898Z,9.99
2016-03-25T12:31:47.902Z,9.98
2016-03-25T12:32:47.919Z,9.99
2016-03-25T12:33:47.937Z,9.95
2016-03-25T12:34:47.972Z,9.91
2016-03-25T12:35:47.974Z,9.99
2016-03-25T12:36:47.993Z,9.99
2016-03-25T12:37:47.995Z,9.92
2016-03-25T12:38:47.998Z,9.83
2016-03-25T12:39:48.063Z,9.83
2016-03-25T12:40:48.035Z,9.87
2016-03-25T12:41:48.068Z,9.92
2016-03-25T12:42:48.056Z,9.86
2016-03-25T12:43:48.074Z,9.79
2016-03-25T12:44:48.076Z,9.72
2016-03-25T12:45:48.111Z,9.65
2016-03-25T12:46:48.128Z,9.65
2016-03-25T12:47:48.148Z,9.65
2016-03-25T12:48:48.166Z,9.55
2016-03-25T12:49:48.184Z,9.54
2016-03-25T12:50:48.186Z,9.58
2016-03-25T12:51:48.189Z,9.64
2016-03-25T12:52:48.239Z,9.66
2016-03-25T12:53:48.225Z,9.73
2016-03-25T12:54:48.338Z,9.68
2016-03-25T12:55:48.247Z,9.72
2016-03-25T12:56:48.250Z,9.69
2016-03-25T12:57:48.284Z,9.74
2016-03-25T12:58:48.286Z,9.79
2016-03-25T12:59:48.305Z,9.84
2016-03-25T13:00:48.323Z,9.8
2016-03-25T13:01:48.341Z,9.84
2016-03-25T13:02:48.344Z,9.91
2016-03-25T13:03:48.393Z,9.94
2016-03-25T13:04:48.380Z,9.91
2016-03-25T13:05:48.383Z,9.91
2016-03-25T13:06:48.417Z,9.8
2016-03-25T13:07:48.435Z,9.86
2016-03-25T13:08:48.438Z,9.84
2016-03-25T13:09:48.488Z,9.83
2016-03-25T13:10:48.615Z,9.79
2016-03-25T13:11:48.478Z,9.83
2016-03-25T13:12:48.495Z,9.79
2016-03-25T13:13:48.499Z,9.89
2016-03-25T13:14:48.517Z,9.86
2016-03-25T13:15:48.520Z,9.86